sensor_id;sensor_type;location;lat;lon;timestamp;P1;durP1;ratioP1;P2;durP2;ratioP2
31382;SDS011;18014;49.228;11.102;2024-01-11T00:00:58;46.13;;;26.15;;
31382;SDS011;18014;49.228;11.102;2024-01-11T00:02:59;49.08;;;28.45;;
31382;SDS011;18014;49.228;11.102;2024-01-11T00:05:00;52.97;;;28.55;;
31382;SDS011;18014;49.228;11.102;2024-01-11T00:07:02;50.20;;;29.67;;
31382;SDS011;18014;49.228;11.102;2024-01-11T00:09:03;55.53;;;29.35;;
31382;SDS011;18014;49.228;11.102;2024-01-11T00:11:04;51.17;;;28.83;;
31382;SDS011;18014;49.228;11.102;2024-01-11T00:13:05;51.22;;;27.83;;
31382;SDS011;18014;49.228;11.102;2024-01-11T00:15:06;52.47;;;28.90;;
31382;SDS011;18014;49.228;11.102;2024-01-11T00:17:07;44.75;;;25.42;;
31382;SDS011;18014;49.228;11.102;2024-01-11T00:19:08;48.92;;;27.50;;
31382;SDS011;18014;49.228;11.102;2024-01-11T00:21:09;50.65;;;27.20;;
31382;SDS011;18014;49.228;11.102;2024-01-11T00:23:10;54.38;;;27.92;;
31382;SDS011;18014;49.228;11.102;2024-01-11T00:25:11;49.05;;;26.48;;
31382;SDS011;18014;49.228;11.102;2024-01-11T00:27:12;48.47;;;24.83;;
31382;SDS011;18014;49.228;11.102;2024-01-11T00:29:13;46.70;;;25.13;;
31382;SDS011;18014;49.228;11.102;2024-01-11T00:31:14;46.40;;;25.58;;
31382;SDS011;18014;49.228;11.102;2024-01-11T00:33:15;45.42;;;25.50;;
31382;SDS011;18014;49.228;11.102;2024-01-11T00:35:16;51.78;;;28.13;;
31382;SDS011;18014;49.228;11.102;2024-01-11T00:37:17;47.53;;;26.80;;
31382;SDS011;18014;49.228;11.102;2024-01-11T00:39:18;44.45;;;26.58;;
31382;SDS011;18014;49.228;11.102;2024-01-11T00:41:19;43.97;;;26.23;;
31382;SDS011;18014;49.228;11.102;2024-01-11T00:43:20;48.97;;;25.58;;
31382;SDS011;18014;49.228;11.102;2024-01-11T00:45:21;43.65;;;24.35;;
31382;SDS011;18014;49.228;11.102;2024-01-11T00:47:22;50.25;;;27.05;;
31382;SDS011;18014;49.228;11.102;2024-01-11T00:49:23;47.70;;;25.95;;
31382;SDS011;18014;49.228;11.102;2024-01-11T00:51:24;48.42;;;26.27;;
31382;SDS011;18014;49.228;11.102;2024-01-11T00:53:25;48.33;;;25.77;;
31382;SDS011;18014;49.228;11.102;2024-01-11T00:55:30;51.78;;;25.33;;
31382;SDS011;18014;49.228;11.102;2024-01-11T00:57:31;44.05;;;23.70;;
31382;SDS011;18014;49.228;11.102;2024-01-11T00:59:32;48.40;;;24.92;;
31382;SDS011;18014;49.228;11.102;2024-01-11T01:01:33;51.88;;;27.33;;
31382;SDS011;18014;49.228;11.102;2024-01-11T01:03:34;49.55;;;26.60;;
31382;SDS011;18014;49.228;11.102;2024-01-11T01:05:35;41.28;;;25.35;;
31382;SDS011;18014;49.228;11.102;2024-01-11T01:07:36;47.67;;;25.65;;
31382;SDS011;18014;49.228;11.102;2024-01-11T01:09:37;43.63;;;24.75;;
31382;SDS011;18014;49.228;11.102;2024-01-11T01:11:38;50.30;;;25.85;;
31382;SDS011;18014;49.228;11.102;2024-01-11T01:13:38;43.05;;;24.75;;
31382;SDS011;18014;49.228;11.102;2024-01-11T01:15:39;44.83;;;24.23;;
31382;SDS011;18014;49.228;11.102;2024-01-11T01:17:40;44.13;;;23.60;;
31382;SDS011;18014;49.228;11.102;2024-01-11T01:19:41;43.65;;;23.15;;
31382;SDS011;18014;49.228;11.102;2024-01-11T01:21:43;42.72;;;24.10;;
31382;SDS011;18014;49.228;11.102;2024-01-11T01:23:44;46.33;;;24.80;;
31382;SDS011;18014;49.228;11.102;2024-01-11T01:25:45;48.00;;;25.90;;
31382;SDS011;18014;49.228;11.102;2024-01-11T01:27:46;49.25;;;24.98;;
31382;SDS011;18014;49.228;11.102;2024-01-11T01:29:48;52.13;;;26.88;;
31382;SDS011;18014;49.228;11.102;2024-01-11T01:31:49;48.35;;;26.27;;
31382;SDS011;18014;49.228;11.102;2024-01-11T01:33:51;46.10;;;24.53;;
31382;SDS011;18014;49.228;11.102;2024-01-11T01:35:51;50.63;;;26.95;;
31382;SDS011;18014;49.228;11.102;2024-01-11T01:37:52;51.08;;;27.13;;
31382;SDS011;18014;49.228;11.102;2024-01-11T01:39:53;49.10;;;27.65;;
31382;SDS011;18014;49.228;11.102;2024-01-11T01:41:54;50.72;;;27.92;;
31382;SDS011;18014;49.228;11.102;2024-01-11T01:43:55;47.15;;;26.33;;
31382;SDS011;18014;49.228;11.102;2024-01-11T01:45:56;42.72;;;25.10;;
31382;SDS011;18014;49.228;11.102;2024-01-11T01:47:57;46.60;;;25.10;;
31382;SDS011;18014;49.228;11.102;2024-01-11T01:49:58;42.35;;;23.85;;
31382;SDS011;18014;49.228;11.102;2024-01-11T01:51:59;48.47;;;25.05;;
31382;SDS011;18014;49.228;11.102;2024-01-11T01:54:01;52.25;;;26.17;;
31382;SDS011;18014;49.228;11.102;2024-01-11T01:56:03;45.58;;;25.92;;
31382;SDS011;18014;49.228;11.102;2024-01-11T02:00:08;44.35;;;26.13;;
31382;SDS011;18014;49.228;11.102;2024-01-11T02:02:14;49.85;;;26.08;;
31382;SDS011;18014;49.228;11.102;2024-01-11T02:04:15;50.50;;;25.42;;
31382;SDS011;18014;49.228;11.102;2024-01-11T02:06:16;50.22;;;26.23;;
31382;SDS011;18014;49.228;11.102;2024-01-11T02:08:18;49.85;;;26.05;;
31382;SDS011;18014;49.228;11.102;2024-01-11T02:10:21;49.08;;;27.90;;
31382;SDS011;18014;49.228;11.102;2024-01-11T02:12:23;51.15;;;29.25;;
31382;SDS011;18014;49.228;11.102;2024-01-11T02:14:25;48.90;;;28.58;;
31382;SDS011;18014;49.228;11.102;2024-01-11T02:16:27;53.47;;;29.20;;
31382;SDS011;18014;49.228;11.102;2024-01-11T02:18:28;56.08;;;29.73;;
31382;SDS011;18014;49.228;11.102;2024-01-11T02:20:29;56.15;;;30.40;;
31382;SDS011;18014;49.228;11.102;2024-01-11T02:25:27;51.00;;;28.83;;
31382;SDS011;18014;49.228;11.102;2024-01-11T02:27:28;51.17;;;29.42;;
31382;SDS011;18014;49.228;11.102;2024-01-11T02:29:29;48.03;;;27.10;;
31382;SDS011;18014;49.228;11.102;2024-01-11T02:31:30;53.17;;;28.02;;
31382;SDS011;18014;49.228;11.102;2024-01-11T02:33:31;58.58;;;27.88;;
31382;SDS011;18014;49.228;11.102;2024-01-11T02:35:32;57.47;;;29.25;;
31382;SDS011;18014;49.228;11.102;2024-01-11T02:37:36;48.28;;;27.48;;
31382;SDS011;18014;49.228;11.102;2024-01-11T02:39:38;51.50;;;27.23;;
31382;SDS011;18014;49.228;11.102;2024-01-11T02:41:40;51.38;;;28.15;;
31382;SDS011;18014;49.228;11.102;2024-01-11T02:43:46;50.75;;;27.50;;
31382;SDS011;18014;49.228;11.102;2024-01-11T02:45:48;49.60;;;28.42;;
31382;SDS011;18014;49.228;11.102;2024-01-11T02:47:49;57.42;;;29.27;;
31382;SDS011;18014;49.228;11.102;2024-01-11T02:49:50;53.33;;;28.08;;
31382;SDS011;18014;49.228;11.102;2024-01-11T02:51:51;52.38;;;29.00;;
31382;SDS011;18014;49.228;11.102;2024-01-11T02:53:52;47.95;;;28.85;;
31382;SDS011;18014;49.228;11.102;2024-01-11T02:55:53;51.42;;;28.80;;
31382;SDS011;18014;49.228;11.102;2024-01-11T02:57:54;45.65;;;26.25;;
31382;SDS011;18014;49.228;11.102;2024-01-11T02:59:55;49.50;;;28.08;;
31382;SDS011;18014;49.228;11.102;2024-01-11T03:01:56;48.63;;;27.25;;
31382;SDS011;18014;49.228;11.102;2024-01-11T03:03:57;52.20;;;27.80;;
31382;SDS011;18014;49.228;11.102;2024-01-11T03:05:58;49.90;;;28.13;;
31382;SDS011;18014;49.228;11.102;2024-01-11T03:07:59;52.08;;;28.52;;
31382;SDS011;18014;49.228;11.102;2024-01-11T03:09:59;47.30;;;27.17;;
31382;SDS011;18014;49.228;11.102;2024-01-11T03:12:01;51.03;;;28.63;;
31382;SDS011;18014;49.228;11.102;2024-01-11T03:14:02;51.47;;;26.25;;
31382;SDS011;18014;49.228;11.102;2024-01-11T03:16:04;50.23;;;26.73;;
31382;SDS011;18014;49.228;11.102;2024-01-11T03:18:05;52.47;;;27.73;;
31382;SDS011;18014;49.228;11.102;2024-01-11T03:20:06;49.38;;;28.17;;
31382;SDS011;18014;49.228;11.102;2024-01-11T03:22:08;46.63;;;27.77;;
31382;SDS011;18014;49.228;11.102;2024-01-11T03:24:09;45.08;;;25.58;;
31382;SDS011;18014;49.228;11.102;2024-01-11T03:26:14;43.10;;;25.42;;
31382;SDS011;18014;49.228;11.102;2024-01-11T03:28:18;49.05;;;27.23;;
31382;SDS011;18014;49.228;11.102;2024-01-11T03:30:18;46.30;;;26.17;;
31382;SDS011;18014;49.228;11.102;2024-01-11T03:32:19;49.33;;;25.70;;
31382;SDS011;18014;49.228;11.102;2024-01-11T03:34:20;46.45;;;24.00;;
31382;SDS011;18014;49.228;11.102;2024-01-11T03:36:24;42.28;;;25.27;;
31382;SDS011;18014;49.228;11.102;2024-01-11T03:38:25;46.28;;;24.48;;
31382;SDS011;18014;49.228;11.102;2024-01-11T03:40:26;46.22;;;25.10;;
31382;SDS011;18014;49.228;11.102;2024-01-11T03:42:27;42.75;;;23.30;;
31382;SDS011;18014;49.228;11.102;2024-01-11T03:44:28;48.72;;;25.80;;
31382;SDS011;18014;49.228;11.102;2024-01-11T03:46:31;45.40;;;24.55;;
31382;SDS011;18014;49.228;11.102;2024-01-11T03:48:32;47.85;;;24.98;;
31382;SDS011;18014;49.228;11.102;2024-01-11T03:50:33;47.60;;;25.33;;
31382;SDS011;18014;49.228;11.102;2024-01-11T03:52:34;48.00;;;27.75;;
31382;SDS011;18014;49.228;11.102;2024-01-11T03:54:35;49.67;;;25.58;;
31382;SDS011;18014;49.228;11.102;2024-01-11T03:56:39;50.85;;;27.15;;
31382;SDS011;18014;49.228;11.102;2024-01-11T03:58:40;46.45;;;25.55;;
31382;SDS011;18014;49.228;11.102;2024-01-11T04:00:41;41.17;;;24.90;;
31382;SDS011;18014;49.228;11.102;2024-01-11T04:02:42;51.70;;;27.10;;
31382;SDS011;18014;49.228;11.102;2024-01-11T04:04:43;50.40;;;27.20;;
31382;SDS011;18014;49.228;11.102;2024-01-11T04:06:45;45.70;;;25.75;;
31382;SDS011;18014;49.228;11.102;2024-01-11T04:08:46;48.43;;;24.93;;
31382;SDS011;18014;49.228;11.102;2024-01-11T04:10:47;52.97;;;28.33;;
31382;SDS011;18014;49.228;11.102;2024-01-11T04:12:48;43.05;;;26.27;;
31382;SDS011;18014;49.228;11.102;2024-01-11T04:14:49;43.88;;;25.65;;
31382;SDS011;18014;49.228;11.102;2024-01-11T04:16:50;53.38;;;26.88;;
31382;SDS011;18014;49.228;11.102;2024-01-11T04:18:51;47.47;;;26.65;;
31382;SDS011;18014;49.228;11.102;2024-01-11T04:20:52;43.97;;;25.98;;
31382;SDS011;18014;49.228;11.102;2024-01-11T04:22:53;46.25;;;25.65;;
31382;SDS011;18014;49.228;11.102;2024-01-11T04:24:54;50.38;;;26.40;;
31382;SDS011;18014;49.228;11.102;2024-01-11T04:26:55;46.53;;;26.00;;
31382;SDS011;18014;49.228;11.102;2024-01-11T04:28:56;47.00;;;25.13;;
31382;SDS011;18014;49.228;11.102;2024-01-11T04:30:59;45.97;;;26.25;;
31382;SDS011;18014;49.228;11.102;2024-01-11T04:33:00;51.17;;;29.05;;
31382;SDS011;18014;49.228;11.102;2024-01-11T04:35:01;52.13;;;26.90;;
31382;SDS011;18014;49.228;11.102;2024-01-11T04:37:02;49.85;;;26.25;;
31382;SDS011;18014;49.228;11.102;2024-01-11T04:39:03;48.13;;;26.88;;
31382;SDS011;18014;49.228;11.102;2024-01-11T04:41:14;55.28;;;27.52;;
31382;SDS011;18014;49.228;11.102;2024-01-11T04:43:15;47.88;;;26.15;;
31382;SDS011;18014;49.228;11.102;2024-01-11T04:45:16;44.42;;;24.52;;
31382;SDS011;18014;49.228;11.102;2024-01-11T04:47:17;44.67;;;24.83;;
31382;SDS011;18014;49.228;11.102;2024-01-11T04:49:18;49.08;;;26.08;;
31382;SDS011;18014;49.228;11.102;2024-01-11T04:51:19;41.00;;;24.70;;
31382;SDS011;18014;49.228;11.102;2024-01-11T04:53:20;52.03;;;26.65;;
31382;SDS011;18014;49.228;11.102;2024-01-11T04:55:21;50.53;;;25.80;;
31382;SDS011;18014;49.228;11.102;2024-01-11T04:57:22;51.40;;;27.08;;
31382;SDS011;18014;49.228;11.102;2024-01-11T04:59:23;55.60;;;27.88;;
31382;SDS011;18014;49.228;11.102;2024-01-11T05:01:24;49.08;;;26.60;;
31382;SDS011;18014;49.228;11.102;2024-01-11T05:03:25;47.55;;;26.48;;
31382;SDS011;18014;49.228;11.102;2024-01-11T05:05:26;51.83;;;27.25;;
31382;SDS011;18014;49.228;11.102;2024-01-11T05:07:27;49.05;;;25.98;;
31382;SDS011;18014;49.228;11.102;2024-01-11T05:09:28;52.63;;;27.23;;
31382;SDS011;18014;49.228;11.102;2024-01-11T05:11:29;46.45;;;26.50;;
31382;SDS011;18014;49.228;11.102;2024-01-11T05:13:30;47.88;;;26.92;;
31382;SDS011;18014;49.228;11.102;2024-01-11T05:15:31;50.60;;;27.38;;
31382;SDS011;18014;49.228;11.102;2024-01-11T05:17:34;45.92;;;26.67;;
31382;SDS011;18014;49.228;11.102;2024-01-11T05:19:35;44.28;;;26.30;;
31382;SDS011;18014;49.228;11.102;2024-01-11T05:21:36;47.50;;;25.58;;
31382;SDS011;18014;49.228;11.102;2024-01-11T05:23:36;50.03;;;25.92;;
31382;SDS011;18014;49.228;11.102;2024-01-11T05:25:37;43.03;;;24.52;;
31382;SDS011;18014;49.228;11.102;2024-01-11T05:27:38;50.22;;;26.15;;
31382;SDS011;18014;49.228;11.102;2024-01-11T05:29:39;50.47;;;26.48;;
31382;SDS011;18014;49.228;11.102;2024-01-11T05:31:40;45.17;;;25.27;;
31382;SDS011;18014;49.228;11.102;2024-01-11T05:33:41;46.70;;;26.00;;
31382;SDS011;18014;49.228;11.102;2024-01-11T05:35:43;48.10;;;27.50;;
31382;SDS011;18014;49.228;11.102;2024-01-11T05:37:44;53.95;;;27.25;;
31382;SDS011;18014;49.228;11.102;2024-01-11T05:39:45;45.25;;;26.17;;
31382;SDS011;18014;49.228;11.102;2024-01-11T05:41:45;51.00;;;27.42;;
31382;SDS011;18014;49.228;11.102;2024-01-11T05:43:46;54.80;;;29.98;;
31382;SDS011;18014;49.228;11.102;2024-01-11T05:45:47;51.95;;;27.95;;
31382;SDS011;18014;49.228;11.102;2024-01-11T05:47:48;51.17;;;27.90;;
31382;SDS011;18014;49.228;11.102;2024-01-11T05:49:49;47.55;;;26.30;;
31382;SDS011;18014;49.228;11.102;2024-01-11T05:51:51;49.60;;;25.63;;
31382;SDS011;18014;49.228;11.102;2024-01-11T05:53:51;45.97;;;26.95;;
31382;SDS011;18014;49.228;11.102;2024-01-11T05:55:53;50.47;;;27.95;;
31382;SDS011;18014;49.228;11.102;2024-01-11T05:57:54;42.60;;;25.50;;
31382;SDS011;18014;49.228;11.102;2024-01-11T05:59:55;51.63;;;25.85;;
31382;SDS011;18014;49.228;11.102;2024-01-11T06:01:56;49.35;;;26.25;;
31382;SDS011;18014;49.228;11.102;2024-01-11T06:04:00;47.58;;;26.88;;
31382;SDS011;18014;49.228;11.102;2024-01-11T06:06:01;41.65;;;25.20;;
31382;SDS011;18014;49.228;11.102;2024-01-11T06:08:03;46.60;;;26.98;;
31382;SDS011;18014;49.228;11.102;2024-01-11T06:10:05;49.15;;;27.83;;
31382;SDS011;18014;49.228;11.102;2024-01-11T06:12:08;48.00;;;26.70;;
31382;SDS011;18014;49.228;11.102;2024-01-11T06:14:09;47.13;;;26.80;;
31382;SDS011;18014;49.228;11.102;2024-01-11T06:16:10;43.90;;;25.50;;
31382;SDS011;18014;49.228;11.102;2024-01-11T06:18:11;47.13;;;25.98;;
31382;SDS011;18014;49.228;11.102;2024-01-11T06:20:12;49.42;;;26.25;;
31382;SDS011;18014;49.228;11.102;2024-01-11T06:22:13;54.53;;;28.25;;
31382;SDS011;18014;49.228;11.102;2024-01-11T06:24:14;53.92;;;26.45;;
31382;SDS011;18014;49.228;11.102;2024-01-11T06:26:15;49.50;;;27.48;;
31382;SDS011;18014;49.228;11.102;2024-01-11T06:28:16;51.17;;;26.95;;
31382;SDS011;18014;49.228;11.102;2024-01-11T06:30:17;50.47;;;26.30;;
31382;SDS011;18014;49.228;11.102;2024-01-11T06:32:17;50.78;;;28.17;;
31382;SDS011;18014;49.228;11.102;2024-01-11T06:34:18;52.53;;;27.77;;
31382;SDS011;18014;49.228;11.102;2024-01-11T06:36:19;53.03;;;28.27;;
31382;SDS011;18014;49.228;11.102;2024-01-11T06:38:21;51.83;;;27.75;;
31382;SDS011;18014;49.228;11.102;2024-01-11T06:40:22;53.92;;;27.55;;
31382;SDS011;18014;49.228;11.102;2024-01-11T06:42:23;42.97;;;26.10;;
31382;SDS011;18014;49.228;11.102;2024-01-11T06:44:23;47.10;;;25.67;;
31382;SDS011;18014;49.228;11.102;2024-01-11T06:46:24;45.58;;;25.00;;
31382;SDS011;18014;49.228;11.102;2024-01-11T06:48:25;46.08;;;25.08;;
31382;SDS011;18014;49.228;11.102;2024-01-11T06:50:26;50.67;;;26.83;;
31382;SDS011;18014;49.228;11.102;2024-01-11T06:55:25;51.08;;;28.05;;
31382;SDS011;18014;49.228;11.102;2024-01-11T06:59:59;51.25;;;28.33;;
31382;SDS011;18014;49.228;11.102;2024-01-11T07:02:00;53.30;;;29.00;;
31382;SDS011;18014;49.228;11.102;2024-01-11T07:04:00;50.38;;;27.27;;
31382;SDS011;18014;49.228;11.102;2024-01-11T07:06:01;51.33;;;26.35;;
31382;SDS011;18014;49.228;11.102;2024-01-11T07:08:03;49.05;;;26.38;;
31382;SDS011;18014;49.228;11.102;2024-01-11T07:10:05;51.88;;;26.92;;
31382;SDS011;18014;49.228;11.102;2024-01-11T07:12:06;45.00;;;26.25;;
31382;SDS011;18014;49.228;11.102;2024-01-11T07:14:07;54.03;;;26.58;;
31382;SDS011;18014;49.228;11.102;2024-01-11T07:16:08;47.25;;;26.40;;
31382;SDS011;18014;49.228;11.102;2024-01-11T07:18:09;50.15;;;27.08;;
31382;SDS011;18014;49.228;11.102;2024-01-11T07:20:10;42.55;;;24.15;;
31382;SDS011;18014;49.228;11.102;2024-01-11T07:22:13;48.38;;;26.10;;
31382;SDS011;18014;49.228;11.102;2024-01-11T07:24:14;49.83;;;26.55;;
31382;SDS011;18014;49.228;11.102;2024-01-11T07:26:15;49.72;;;26.70;;
31382;SDS011;18014;49.228;11.102;2024-01-11T07:28:16;49.30;;;26.95;;
31382;SDS011;18014;49.228;11.102;2024-01-11T07:30:19;52.60;;;27.08;;
31382;SDS011;18014;49.228;11.102;2024-01-11T07:32:20;47.80;;;26.80;;
31382;SDS011;18014;49.228;11.102;2024-01-11T07:34:21;53.50;;;28.45;;
31382;SDS011;18014;49.228;11.102;2024-01-11T07:38:25;54.05;;;29.50;;
31382;SDS011;18014;49.228;11.102;2024-01-11T07:40:26;62.35;;;32.83;;
31382;SDS011;18014;49.228;11.102;2024-01-11T07:42:27;63.15;;;32.67;;
31382;SDS011;18014;49.228;11.102;2024-01-11T07:44:28;59.72;;;31.50;;
31382;SDS011;18014;49.228;11.102;2024-01-11T07:46:29;53.03;;;28.30;;
31382;SDS011;18014;49.228;11.102;2024-01-11T07:48:29;50.13;;;27.08;;
31382;SDS011;18014;49.228;11.102;2024-01-11T07:50:31;51.58;;;28.13;;
31382;SDS011;18014;49.228;11.102;2024-01-11T07:52:32;53.97;;;27.83;;
31382;SDS011;18014;49.228;11.102;2024-01-11T07:54:33;52.72;;;27.55;;
31382;SDS011;18014;49.228;11.102;2024-01-11T07:56:34;53.53;;;27.90;;
31382;SDS011;18014;49.228;11.102;2024-01-11T07:58:35;48.65;;;28.40;;
31382;SDS011;18014;49.228;11.102;2024-01-11T08:00:37;54.00;;;28.60;;
31382;SDS011;18014;49.228;11.102;2024-01-11T08:02:39;49.63;;;29.05;;
31382;SDS011;18014;49.228;11.102;2024-01-11T08:04:40;53.92;;;28.92;;
31382;SDS011;18014;49.228;11.102;2024-01-11T08:06:41;51.47;;;28.88;;
31382;SDS011;18014;49.228;11.102;2024-01-11T08:08:42;55.40;;;29.27;;
31382;SDS011;18014;49.228;11.102;2024-01-11T08:10:43;55.03;;;30.08;;
31382;SDS011;18014;49.228;11.102;2024-01-11T08:12:45;54.50;;;29.75;;
31382;SDS011;18014;49.228;11.102;2024-01-11T08:14:46;66.38;;;32.42;;
31382;SDS011;18014;49.228;11.102;2024-01-11T08:16:47;59.35;;;32.67;;
31382;SDS011;18014;49.228;11.102;2024-01-11T08:18:48;61.63;;;33.75;;
31382;SDS011;18014;49.228;11.102;2024-01-11T08:20:49;60.03;;;34.03;;
31382;SDS011;18014;49.228;11.102;2024-01-11T08:22:50;57.97;;;34.60;;
31382;SDS011;18014;49.228;11.102;2024-01-11T08:24:51;71.60;;;35.45;;
31382;SDS011;18014;49.228;11.102;2024-01-11T08:26:52;64.15;;;34.47;;
31382;SDS011;18014;49.228;11.102;2024-01-11T08:28:53;67.43;;;34.20;;
31382;SDS011;18014;49.228;11.102;2024-01-11T08:30:54;66.90;;;33.85;;
31382;SDS011;18014;49.228;11.102;2024-01-11T08:32:56;61.00;;;33.67;;
31382;SDS011;18014;49.228;11.102;2024-01-11T08:34:57;63.10;;;34.20;;
31382;SDS011;18014;49.228;11.102;2024-01-11T08:36:58;68.28;;;34.42;;
31382;SDS011;18014;49.228;11.102;2024-01-11T08:38:59;63.58;;;34.35;;
31382;SDS011;18014;49.228;11.102;2024-01-11T08:41:02;63.92;;;32.95;;
31382;SDS011;18014;49.228;11.102;2024-01-11T08:43:04;66.03;;;34.67;;
31382;SDS011;18014;49.228;11.102;2024-01-11T08:47:07;62.72;;;34.58;;
31382;SDS011;18014;49.228;11.102;2024-01-11T08:49:09;66.28;;;34.75;;
31382;SDS011;18014;49.228;11.102;2024-01-11T08:51:10;65.78;;;34.42;;
31382;SDS011;18014;49.228;11.102;2024-01-11T08:53:11;66.78;;;35.28;;
31382;SDS011;18014;49.228;11.102;2024-01-11T08:55:12;61.78;;;31.70;;
31382;SDS011;18014;49.228;11.102;2024-01-11T08:57:13;57.60;;;33.17;;
31382;SDS011;18014;49.228;11.102;2024-01-11T08:59:14;65.30;;;34.83;;
31382;SDS011;18014;49.228;11.102;2024-01-11T09:01:15;65.55;;;33.47;;
31382;SDS011;18014;49.228;11.102;2024-01-11T09:03:16;60.05;;;32.78;;
31382;SDS011;18014;49.228;11.102;2024-01-11T09:05:17;61.17;;;33.13;;
31382;SDS011;18014;49.228;11.102;2024-01-11T09:07:18;64.22;;;33.88;;
31382;SDS011;18014;49.228;11.102;2024-01-11T09:09:19;65.63;;;33.33;;
31382;SDS011;18014;49.228;11.102;2024-01-11T09:11:20;64.05;;;34.10;;
31382;SDS011;18014;49.228;11.102;2024-01-11T09:13:21;65.80;;;33.92;;
31382;SDS011;18014;49.228;11.102;2024-01-11T09:15:22;59.50;;;32.03;;
31382;SDS011;18014;49.228;11.102;2024-01-11T09:17:23;63.65;;;33.55;;
31382;SDS011;18014;49.228;11.102;2024-01-11T09:19:24;61.42;;;32.88;;
31382;SDS011;18014;49.228;11.102;2024-01-11T09:21:26;57.38;;;32.38;;
31382;SDS011;18014;49.228;11.102;2024-01-11T09:23:26;64.23;;;33.77;;
31382;SDS011;18014;49.228;11.102;2024-01-11T09:25:27;64.47;;;33.40;;
31382;SDS011;18014;49.228;11.102;2024-01-11T09:27:29;68.95;;;33.67;;
31382;SDS011;18014;49.228;11.102;2024-01-11T09:29:30;56.60;;;31.23;;
31382;SDS011;18014;49.228;11.102;2024-01-11T09:31:30;61.15;;;32.95;;
31382;SDS011;18014;49.228;11.102;2024-01-11T09:33:31;56.85;;;30.95;;
31382;SDS011;18014;49.228;11.102;2024-01-11T09:35:32;56.65;;;29.85;;
31382;SDS011;18014;49.228;11.102;2024-01-11T09:37:33;63.22;;;30.55;;
31382;SDS011;18014;49.228;11.102;2024-01-11T09:39:34;51.78;;;30.17;;
31382;SDS011;18014;49.228;11.102;2024-01-11T09:41:36;58.70;;;30.13;;
31382;SDS011;18014;49.228;11.102;2024-01-11T09:43:37;56.35;;;30.08;;
31382;SDS011;18014;49.228;11.102;2024-01-11T09:47:41;62.22;;;32.15;;
31382;SDS011;18014;49.228;11.102;2024-01-11T09:49:45;62.65;;;31.35;;
31382;SDS011;18014;49.228;11.102;2024-01-11T09:51:50;60.08;;;31.27;;
31382;SDS011;18014;49.228;11.102;2024-01-11T09:53:52;60.13;;;31.73;;
31382;SDS011;18014;49.228;11.102;2024-01-11T09:55:59;58.72;;;29.35;;
31382;SDS011;18014;49.228;11.102;2024-01-11T09:58:00;56.40;;;29.23;;
31382;SDS011;18014;49.228;11.102;2024-01-11T10:00:02;62.25;;;31.80;;
31382;SDS011;18014;49.228;11.102;2024-01-11T10:02:07;61.30;;;31.10;;
31382;SDS011;18014;49.228;11.102;2024-01-11T10:04:11;63.45;;;31.88;;
31382;SDS011;18014;49.228;11.102;2024-01-11T10:06:14;61.05;;;32.08;;
31382;SDS011;18014;49.228;11.102;2024-01-11T10:08:16;62.75;;;33.17;;
31382;SDS011;18014;49.228;11.102;2024-01-11T10:10:21;57.03;;;29.98;;
31382;SDS011;18014;49.228;11.102;2024-01-11T10:12:22;56.72;;;30.75;;
31382;SDS011;18014;49.228;11.102;2024-01-11T10:14:24;55.38;;;31.90;;
31382;SDS011;18014;49.228;11.102;2024-01-11T10:16:26;51.95;;;29.23;;
31382;SDS011;18014;49.228;11.102;2024-01-11T10:20:29;52.95;;;29.63;;
31382;SDS011;18014;49.228;11.102;2024-01-11T10:22:32;55.28;;;29.10;;
31382;SDS011;18014;49.228;11.102;2024-01-11T10:24:33;60.15;;;30.75;;
31382;SDS011;18014;49.228;11.102;2024-01-11T10:26:35;55.38;;;30.60;;
31382;SDS011;18014;49.228;11.102;2024-01-11T10:28:36;56.63;;;30.30;;
31382;SDS011;18014;49.228;11.102;2024-01-11T10:30:37;58.40;;;31.23;;
31382;SDS011;18014;49.228;11.102;2024-01-11T10:32:39;63.80;;;32.10;;
31382;SDS011;18014;49.228;11.102;2024-01-11T10:34:40;58.25;;;29.88;;
31382;SDS011;18014;49.228;11.102;2024-01-11T10:36:41;58.53;;;29.30;;
31382;SDS011;18014;49.228;11.102;2024-01-11T10:38:43;56.72;;;30.27;;
31382;SDS011;18014;49.228;11.102;2024-01-11T10:40:47;55.85;;;30.23;;
31382;SDS011;18014;49.228;11.102;2024-01-11T10:42:49;53.10;;;29.65;;
31382;SDS011;18014;49.228;11.102;2024-01-11T10:44:52;59.70;;;31.20;;
31382;SDS011;18014;49.228;11.102;2024-01-11T10:46:56;52.85;;;28.40;;
31382;SDS011;18014;49.228;11.102;2024-01-11T10:48:57;54.10;;;30.60;;
31382;SDS011;18014;49.228;11.102;2024-01-11T10:51:05;59.63;;;30.98;;
31382;SDS011;18014;49.228;11.102;2024-01-11T10:56:07;58.92;;;29.98;;
31382;SDS011;18014;49.228;11.102;2024-01-11T10:58:09;58.15;;;30.38;;
31382;SDS011;18014;49.228;11.102;2024-01-11T11:00:10;57.60;;;27.40;;
31382;SDS011;18014;49.228;11.102;2024-01-11T11:02:12;56.25;;;28.90;;
31382;SDS011;18014;49.228;11.102;2024-01-11T11:04:15;57.15;;;30.35;;
31382;SDS011;18014;49.228;11.102;2024-01-11T11:06:17;58.25;;;31.02;;
31382;SDS011;18014;49.228;11.102;2024-01-11T11:08:19;54.63;;;28.70;;
31382;SDS011;18014;49.228;11.102;2024-01-11T11:10:21;53.65;;;28.63;;
31382;SDS011;18014;49.228;11.102;2024-01-11T11:12:22;56.80;;;27.90;;
31382;SDS011;18014;49.228;11.102;2024-01-11T11:14:24;57.53;;;30.27;;
31382;SDS011;18014;49.228;11.102;2024-01-11T11:16:25;58.45;;;29.60;;
31382;SDS011;18014;49.228;11.102;2024-01-11T11:18:26;56.45;;;29.95;;
31382;SDS011;18014;49.228;11.102;2024-01-11T11:20:27;52.30;;;27.45;;
31382;SDS011;18014;49.228;11.102;2024-01-11T11:22:28;52.65;;;27.42;;
31382;SDS011;18014;49.228;11.102;2024-01-11T11:24:35;51.40;;;28.27;;
31382;SDS011;18014;49.228;11.102;2024-01-11T11:26:36;57.65;;;28.85;;
31382;SDS011;18014;49.228;11.102;2024-01-11T11:28:37;54.90;;;28.90;;
31382;SDS011;18014;49.228;11.102;2024-01-11T11:30:38;53.13;;;28.40;;
31382;SDS011;18014;49.228;11.102;2024-01-11T11:32:44;48.88;;;26.65;;
31382;SDS011;18014;49.228;11.102;2024-01-11T11:34:45;49.93;;;28.90;;
31382;SDS011;18014;49.228;11.102;2024-01-11T11:36:47;54.22;;;28.20;;
31382;SDS011;18014;49.228;11.102;2024-01-11T11:38:54;56.78;;;31.17;;
31382;SDS011;18014;49.228;11.102;2024-01-11T11:41:00;58.60;;;30.30;;
31382;SDS011;18014;49.228;11.102;2024-01-11T11:43:01;53.75;;;29.45;;
31382;SDS011;18014;49.228;11.102;2024-01-11T11:45:05;59.75;;;30.83;;
31382;SDS011;18014;49.228;11.102;2024-01-11T11:47:18;59.97;;;29.77;;
31382;SDS011;18014;49.228;11.102;2024-01-11T11:49:47;56.28;;;30.75;;
31382;SDS011;18014;49.228;11.102;2024-01-11T11:52:03;55.30;;;29.73;;
31382;SDS011;18014;49.228;11.102;2024-01-11T11:54:04;52.25;;;28.50;;
31382;SDS011;18014;49.228;11.102;2024-01-11T11:56:07;59.85;;;30.40;;
31382;SDS011;18014;49.228;11.102;2024-01-11T11:58:12;56.38;;;30.10;;
31382;SDS011;18014;49.228;11.102;2024-01-11T12:06:09;54.28;;;28.45;;
31382;SDS011;18014;49.228;11.102;2024-01-11T12:08:10;48.88;;;26.35;;